createdAt,value
2022-11-06T00:00:30.088Z,1.60
2022-11-06T00:03:00.235Z,1.60
2022-11-06T00:05:46.432Z,1.60
2022-11-06T00:08:15.061Z,1.60
2022-11-06T00:10:43.490Z,1.60
2022-11-06T00:13:11.498Z,1.60
2022-11-06T00:15:39.411Z,1.60
2022-11-06T00:18:08.786Z,1.60
2022-11-06T00:20:37.753Z,1.60
2022-11-06T00:23:05.769Z,1.70
2022-11-06T00:25:33.794Z,1.70
2022-11-06T00:28:01.818Z,1.70
2022-11-06T00:30:29.831Z,1.70
2022-11-06T00:32:58.735Z,1.70
2022-11-06T00:35:28.179Z,1.70
2022-11-06T00:37:56.250Z,1.70
2022-11-06T00:40:24.386Z,1.70
2022-11-06T00:42:56.739Z,1.80
2022-11-06T00:45:25.611Z,1.80
2022-11-06T00:47:53.912Z,1.80
2022-11-06T00:50:26.144Z,1.80
2022-11-06T00:52:56.128Z,1.90
2022-11-06T00:55:24.150Z,1.90
2022-11-06T00:57:52.309Z,1.90
2022-11-06T01:00:20.596Z,1.90
2022-11-06T01:02:49.097Z,1.90
2022-11-06T01:05:17.753Z,2.00
2022-11-06T01:07:45.848Z,2.00
2022-11-06T01:10:15.327Z,2.00
2022-11-06T01:12:43.579Z,2.00
2022-11-06T01:15:12.271Z,2.00
2022-11-06T01:17:40.284Z,2.00
2022-11-06T01:20:09.919Z,2.10
2022-11-06T01:22:37.934Z,2.00
2022-11-06T01:25:07.056Z,2.10
2022-11-06T01:27:36.613Z,2.10
2022-11-06T01:30:05.758Z,2.00
2022-11-06T01:32:35.166Z,2.10
2022-11-06T01:35:03.201Z,2.10
2022-11-06T01:37:31.252Z,2.10
2022-11-06T01:39:59.334Z,2.10
2022-11-06T01:42:27.340Z,2.10
2022-11-06T01:45:27.003Z,2.10
2022-11-06T01:47:55.194Z,2.10
2022-11-06T01:50:24.470Z,2.10
2022-11-06T01:52:52.924Z,2.20
2022-11-06T01:55:26.107Z,2.20
2022-11-06T01:57:55.418Z,2.20
2022-11-06T02:00:23.865Z,2.20
2022-11-06T02:02:53.624Z,2.20
2022-11-06T02:05:22.121Z,2.20
2022-11-06T02:07:50.400Z,2.20
2022-11-06T02:10:18.615Z,2.30
2022-11-06T02:12:55.984Z,2.30
2022-11-06T02:15:33.809Z,2.30
2022-11-06T02:18:25.279Z,2.40
2022-11-06T02:21:20.640Z,2.40
2022-11-06T02:23:59.608Z,2.50
2022-11-06T02:26:51.026Z,2.60
2022-11-06T02:29:22.594Z,2.60
2022-11-06T02:31:55.531Z,2.70
2022-11-06T02:34:27.308Z,2.80
2022-11-06T02:37:01.148Z,2.80
2022-11-06T02:39:33.814Z,2.90
2022-11-06T02:42:05.983Z,2.80
2022-11-06T02:44:37.483Z,2.80
2022-11-06T02:47:08.778Z,2.80
2022-11-06T02:49:41.832Z,2.80
2022-11-06T02:52:14.302Z,2.90
2022-11-06T02:54:47.173Z,2.80
2022-11-06T02:57:21.453Z,2.80
2022-11-06T02:59:55.891Z,2.80
2022-11-06T03:02:31.349Z,2.80
2022-11-06T03:05:05.550Z,2.80
2022-11-06T03:07:39.038Z,2.80
2022-11-06T03:10:09.188Z,2.70
2022-11-06T03:12:50.963Z,2.70
2022-11-06T03:15:27.628Z,2.60
2022-11-06T03:18:03.437Z,2.50
2022-11-06T03:20:37.051Z,2.50
2022-11-06T03:23:12.001Z,2.40
2022-11-06T03:25:45.872Z,2.40
2022-11-06T03:28:20.770Z,2.30
2022-11-06T03:30:54.279Z,2.30
2022-11-06T03:33:30.212Z,2.30
2022-11-06T03:36:03.062Z,2.30
2022-11-06T03:38:39.522Z,2.30
2022-11-06T03:41:15.454Z,2.20
2022-11-06T03:43:47.233Z,2.20
2022-11-06T03:46:20.838Z,2.10
2022-11-06T03:48:52.655Z,2.00
2022-11-06T03:51:25.862Z,2.00
2022-11-06T03:53:57.463Z,1.90
2022-11-06T03:56:30.399Z,1.90
2022-11-06T03:59:02.691Z,1.80
2022-11-06T04:01:35.162Z,1.80
2022-11-06T04:04:06.666Z,1.80
2022-11-06T04:06:38.819Z,1.70
2022-11-06T04:09:27.661Z,1.70
2022-11-06T04:12:15.112Z,1.60
2022-11-06T04:14:49.307Z,1.60
2022-11-06T04:17:18.510Z,1.60
2022-11-06T04:19:50.542Z,1.60
2022-11-06T04:22:27.433Z,1.60
2022-11-06T04:25:22.300Z,1.50
2022-11-06T04:28:01.253Z,1.50
2022-11-06T04:30:34.144Z,1.50
2022-11-06T04:33:07.982Z,1.50
2022-11-06T04:35:45.000Z,1.50
2022-11-06T04:38:18.353Z,1.50
2022-11-06T04:40:54.976Z,1.50
2022-11-06T04:43:28.585Z,1.50
2022-11-06T04:45:59.523Z,1.50
2022-11-06T04:48:28.172Z,1.50
2022-11-06T04:51:00.848Z,1.50
2022-11-06T04:53:31.120Z,1.50
2022-11-06T04:56:02.826Z,1.50
2022-11-06T04:58:30.630Z,1.50
2022-11-06T05:01:00.218Z,1.50
2022-11-06T05:03:28.113Z,1.50
2022-11-06T05:05:55.910Z,1.50
2022-11-06T05:08:24.583Z,1.50
2022-11-06T05:10:52.376Z,1.50
2022-11-06T05:13:20.162Z,1.40
2022-11-06T05:15:47.933Z,1.40
2022-11-06T05:18:17.174Z,1.30
2022-11-06T05:20:45.073Z,1.30
2022-11-06T05:23:11.954Z,1.30
2022-11-06T05:25:41.056Z,1.30
2022-11-06T05:28:10.080Z,1.30
2022-11-06T05:30:38.452Z,1.30
2022-11-06T05:33:06.299Z,1.30
2022-11-06T05:35:35.424Z,1.20
2022-11-06T05:38:04.032Z,1.20
2022-11-06T05:40:31.918Z,1.20
2022-11-06T05:42:59.680Z,1.20
2022-11-06T05:45:27.602Z,1.20
2022-11-06T05:47:55.409Z,1.20
2022-11-06T05:50:23.212Z,1.20
2022-11-06T05:52:53.431Z,1.20
2022-11-06T05:55:21.422Z,1.30
2022-11-06T05:57:49.231Z,1.30
2022-11-06T06:00:17.281Z,1.30
2022-11-06T06:02:45.296Z,1.30
2022-11-06T06:05:14.677Z,1.30
2022-11-06T06:07:42.678Z,1.30
2022-11-06T06:10:12.119Z,1.30
2022-11-06T06:12:40.216Z,1.30
2022-11-06T06:15:08.913Z,1.30
2022-11-06T06:17:36.810Z,1.30
2022-11-06T06:20:05.848Z,1.40
2022-11-06T06:22:33.650Z,1.40
2022-11-06T06:25:01.593Z,1.30
2022-11-06T06:27:31.192Z,1.30
2022-11-06T06:29:58.965Z,1.30
2022-11-06T06:32:26.781Z,1.40
2022-11-06T06:34:54.732Z,1.40
2022-11-06T06:37:22.523Z,1.40
2022-11-06T06:39:50.293Z,1.40
2022-11-06T06:42:18.065Z,1.50
2022-11-06T06:44:47.799Z,1.50
2022-11-06T06:47:16.900Z,1.60
2022-11-06T06:49:44.824Z,1.60
2022-11-06T06:52:13.565Z,1.70
2022-11-06T06:54:41.365Z,1.80
2022-11-06T06:57:09.918Z,1.90
2022-11-06T06:59:37.693Z,2.00
2022-11-06T07:02:07.446Z,2.10
2022-11-06T07:04:35.319Z,2.30
2022-11-06T07:07:03.172Z,2.40
2022-11-06T07:09:31.803Z,2.60
2022-11-06T07:12:00.017Z,2.80
2022-11-06T07:14:27.784Z,3.00
2022-11-06T07:16:55.693Z,3.20
2022-11-06T07:19:24.856Z,3.40
2022-11-06T07:21:53.163Z,3.40
2022-11-06T07:24:21.165Z,3.50
2022-11-06T07:26:48.984Z,3.70
2022-11-06T07:29:16.925Z,3.80
2022-11-06T07:31:44.719Z,3.90
2022-11-06T07:34:12.892Z,3.90
2022-11-06T07:36:42.284Z,4.00
2022-11-06T07:39:10.321Z,4.10
2022-11-06T07:41:39.159Z,4.20
2022-11-06T07:44:07.165Z,4.20
2022-11-06T07:46:35.190Z,4.20
2022-11-06T07:49:03.208Z,4.20
2022-11-06T07:51:31.267Z,4.20
2022-11-06T07:54:00.451Z,4.20
2022-11-06T07:56:28.336Z,4.20
2022-11-06T07:58:56.482Z,4.30
2022-11-06T08:01:24.515Z,4.40
2022-11-06T08:03:52.565Z,4.50
2022-11-06T08:06:20.591Z,4.60
2022-11-06T08:08:48.531Z,4.70
2022-11-06T08:11:17.912Z,4.90
2022-11-06T08:13:45.944Z,5.10
2022-11-06T08:16:15.677Z,5.30
2022-11-06T08:18:44.799Z,5.50
2022-11-06T08:21:12.729Z,5.80
2022-11-06T08:23:40.719Z,6.10
2022-11-06T08:26:08.665Z,6.30
2022-11-06T08:28:38.203Z,6.50
2022-11-06T08:31:06.971Z,6.70
2022-11-06T08:33:35.846Z,7.00
2022-11-06T08:36:04.086Z,7.20
2022-11-06T08:38:32.463Z,7.40
2022-11-06T08:41:05.212Z,7.60
2022-11-06T08:43:33.272Z,7.60
2022-11-06T08:46:03.506Z,7.80
2022-11-06T08:48:33.153Z,7.90
2022-11-06T08:51:01.152Z,8.10
2022-11-06T08:53:29.387Z,8.20
2022-11-06T08:55:57.410Z,8.40
2022-11-06T08:58:25.587Z,8.50
2022-11-06T09:00:53.610Z,8.80
2022-11-06T09:03:23.056Z,9.00
2022-11-06T09:05:51.091Z,9.20
2022-11-06T09:08:19.020Z,9.30
2022-11-06T09:10:47.057Z,9.40
2022-11-06T09:13:15.259Z,9.50
2022-11-06T09:15:43.898Z,9.60
2022-11-06T09:18:12.381Z,9.60
2022-11-06T09:20:41.783Z,9.60
2022-11-06T09:23:11.881Z,9.60
2022-11-06T09:25:40.113Z,9.70
2022-11-06T09:28:08.212Z,9.80
2022-11-06T09:30:36.215Z,9.80
2022-11-06T09:33:07.906Z,9.80
2022-11-06T09:35:38.717Z,9.70
2022-11-06T09:38:10.961Z,9.80
2022-11-06T09:40:42.044Z,10.00
2022-11-06T09:44:03.387Z,10.10
2022-11-06T09:46:28.506Z,10.00
2022-11-06T09:49:01.831Z,10.10
2022-11-06T09:51:37.500Z,10.00
2022-11-06T09:54:14.663Z,9.90
2022-11-06T09:56:45.160Z,10.00
2022-11-06T09:59:17.428Z,10.00
2022-11-06T10:01:49.029Z,10.10
2022-11-06T10:04:32.106Z,9.90
2022-11-06T10:07:00.186Z,10.00
2022-11-06T10:09:30.137Z,10.00
2022-11-06T10:12:07.981Z,10.00
2022-11-06T10:14:57.378Z,10.00
2022-11-06T10:17:39.375Z,9.90
2022-11-06T10:20:16.040Z,9.90
2022-11-06T10:22:55.707Z,9.90
2022-11-06T10:25:35.865Z,10.00
2022-11-06T10:28:13.129Z,10.00
2022-11-06T10:30:51.664Z,10.00
2022-11-06T10:33:35.750Z,10.10
2022-11-06T10:36:09.030Z,10.10
2022-11-06T10:38:40.063Z,10.20
2022-11-06T10:41:17.445Z,10.20
2022-11-06T10:43:51.022Z,10.20
2022-11-06T10:46:26.433Z,10.10
2022-11-06T10:48:59.509Z,10.10
2022-11-06T10:51:47.529Z,10.20
2022-11-06T10:54:29.479Z,10.20
2022-11-06T10:57:13.153Z,10.20
2022-11-06T10:59:41.395Z,10.10
2022-11-06T11:02:26.039Z,10.00
2022-11-06T11:04:57.737Z,10.00
2022-11-06T11:07:27.809Z,10.00
2022-11-06T11:09:55.925Z,10.20
2022-11-06T11:12:28.462Z,10.30
2022-11-06T11:15:15.370Z,10.20
2022-11-06T11:17:44.564Z,10.20
2022-11-06T11:20:32.213Z,10.20
2022-11-06T11:23:14.423Z,10.20
2022-11-06T11:25:45.115Z,10.30
2022-11-06T11:28:27.762Z,10.30
2022-11-06T11:30:58.335Z,10.20
2022-11-06T11:33:27.344Z,10.20
2022-11-06T11:35:55.960Z,10.30
2022-11-06T11:38:25.994Z,10.30
2022-11-06T11:41:06.333Z,10.30
2022-11-06T11:43:36.016Z,10.30
2022-11-06T11:46:20.922Z,10.30
2022-11-06T11:48:51.280Z,10.20
2022-11-06T11:51:38.119Z,10.30
2022-11-06T11:54:17.090Z,10.30
2022-11-06T11:57:07.669Z,10.30
2022-11-06T11:59:43.682Z,10.40
2022-11-06T12:02:26.583Z,10.30
2022-11-06T12:04:59.915Z,10.30
2022-11-06T12:07:30.528Z,10.30
2022-11-06T12:09:59.895Z,10.40
2022-11-06T12:12:32.047Z,10.40
2022-11-06T12:15:19.807Z,10.40
2022-11-06T12:17:53.400Z,10.30
2022-11-06T12:20:25.574Z,10.30
2022-11-06T12:22:56.888Z,10.40
2022-11-06T12:25:30.176Z,10.40
2022-11-06T12:28:00.890Z,10.40
2022-11-06T12:30:33.985Z,10.40
2022-11-06T12:33:11.807Z,10.50
2022-11-06T12:35:43.327Z,10.60
2022-11-06T12:38:22.581Z,10.60
2022-11-06T12:40:55.305Z,10.50
2022-11-06T12:43:32.319Z,10.60
2022-11-06T12:46:16.838Z,10.50
2022-11-06T12:49:01.559Z,10.50
2022-11-06T12:51:39.890Z,10.50
2022-11-06T12:54:22.824Z,10.40
2022-11-06T12:56:57.226Z,10.50
2022-11-06T12:59:36.953Z,10.60
2022-11-06T13:02:29.418Z,10.50
2022-11-06T13:05:03.529Z,10.50
2022-11-06T13:08:13.516Z,10.50
2022-11-06T13:10:51.375Z,10.50
2022-11-06T13:13:35.096Z,10.40
2022-11-06T13:16:11.904Z,10.50
2022-11-06T13:18:51.913Z,10.50
2022-11-06T13:21:26.556Z,10.50
2022-11-06T13:23:59.464Z,10.50
2022-11-06T13:26:34.286Z,10.50
2022-11-06T13:29:05.789Z,10.50
2022-11-06T13:31:39.964Z,10.50
2022-11-06T13:34:18.088Z,10.60
2022-11-06T13:36:47.419Z,10.60
2022-11-06T13:39:20.972Z,10.60
2022-11-06T13:41:49.316Z,10.60
2022-11-06T13:44:18.105Z,10.50
2022-11-06T13:46:56.228Z,10.50
2022-11-06T13:49:32.415Z,10.50
2022-11-06T13:52:02.798Z,10.50
2022-11-06T13:54:49.759Z,10.50
2022-11-06T13:57:51.517Z,10.40
2022-11-06T14:00:22.475Z,10.40
2022-11-06T14:03:35.634Z,10.30
2022-11-06T14:06:07.165Z,10.20
2022-11-06T14:08:41.945Z,10.20
2022-11-06T14:11:14.960Z,10.10
2022-11-06T14:13:56.621Z,10.10
2022-11-06T14:16:33.181Z,10.00
2022-11-06T14:19:06.057Z,10.00
2022-11-06T14:21:53.819Z,9.90
2022-11-06T14:24:40.517Z,9.90
2022-11-06T14:27:13.065Z,9.90
2022-11-06T14:30:00.245Z,9.90
2022-11-06T14:32:43.582Z,9.80
2022-11-06T14:35:51.360Z,9.80
2022-11-06T14:38:48.100Z,9.70
2022-11-06T14:41:51.830Z,9.60
2022-11-06T14:44:33.148Z,9.60
2022-11-06T14:47:03.551Z,9.50
2022-11-06T14:49:36.599Z,9.40
2022-11-06T14:52:07.153Z,9.30
2022-11-06T14:54:40.342Z,9.20
2022-11-06T14:57:10.532Z,9.20
2022-11-06T14:59:41.695Z,9.10
2022-11-06T15:02:20.446Z,9.00
2022-11-06T15:04:53.806Z,8.80
2022-11-06T15:08:03.078Z,8.70
2022-11-06T15:10:59.124Z,8.60
2022-11-06T15:13:31.201Z,8.40
2022-11-06T15:16:04.660Z,8.20
2022-11-06T15:18:36.731Z,8.10
2022-11-06T15:21:09.082Z,8.00
2022-11-06T15:23:43.432Z,7.80
2022-11-06T15:26:24.105Z,7.60
2022-11-06T15:29:10.302Z,7.50
2022-11-06T15:31:39.466Z,7.30
2022-11-06T15:34:14.767Z,7.10
2022-11-06T15:36:45.450Z,7.00
2022-11-06T15:39:24.238Z,6.80
2022-11-06T15:41:53.710Z,6.70
2022-11-06T15:44:24.510Z,6.60
2022-11-06T15:46:56.558Z,6.50
2022-11-06T15:49:25.425Z,6.30
2022-11-06T15:51:56.228Z,6.20
2022-11-06T15:54:38.672Z,6.10
2022-11-06T15:57:16.002Z,6.00
2022-11-06T15:59:44.286Z,5.90
2022-11-06T16:02:18.822Z,5.80
2022-11-06T16:04:47.920Z,5.70
2022-11-06T16:07:17.482Z,5.70
2022-11-06T16:09:46.558Z,5.60
2022-11-06T16:12:18.405Z,5.60
2022-11-06T16:14:46.848Z,5.50
2022-11-06T16:17:20.135Z,5.40
2022-11-06T16:19:50.155Z,5.40
2022-11-06T16:22:20.320Z,5.30
2022-11-06T16:24:52.795Z,5.20
2022-11-06T16:27:23.871Z,5.10
2022-11-06T16:29:55.247Z,5.00
2022-11-06T16:32:26.188Z,4.90
2022-11-06T16:34:55.403Z,4.80
2022-11-06T16:37:39.954Z,4.80
2022-11-06T16:40:49.107Z,4.70
2022-11-06T16:43:20.351Z,4.70
2022-11-06T16:45:57.110Z,4.60
2022-11-06T16:48:36.875Z,4.50
2022-11-06T16:51:10.890Z,4.50
2022-11-06T16:53:53.461Z,4.40
2022-11-06T16:56:27.167Z,4.30
2022-11-06T16:59:01.822Z,4.20
2022-11-06T17:01:38.076Z,4.20
2022-11-06T17:04:06.382Z,4.10
2022-11-06T17:06:36.594Z,4.10
2022-11-06T17:09:09.941Z,4.00
2022-11-06T17:11:38.988Z,3.90
2022-11-06T17:14:18.722Z,3.90
2022-11-06T17:16:49.680Z,3.80
2022-11-06T17:19:17.758Z,3.80
2022-11-06T17:21:45.837Z,3.80
2022-11-06T17:27:01.658Z,3.80
2022-11-06T17:29:30.810Z,3.80
2022-11-06T17:31:58.629Z,3.80
2022-11-06T17:34:26.408Z,3.80
2022-11-06T17:36:54.360Z,3.80
2022-11-06T17:39:22.520Z,3.90
2022-11-06T17:41:50.302Z,3.90
2022-11-06T17:44:18.359Z,3.90
2022-11-06T17:46:48.160Z,3.90
2022-11-06T17:49:18.672Z,3.90
2022-11-06T17:51:58.176Z,3.80
2022-11-06T17:54:28.027Z,3.80
2022-11-06T17:56:56.751Z,3.70
2022-11-06T17:59:24.742Z,3.70
2022-11-06T18:01:55.097Z,3.70
2022-11-06T18:04:25.128Z,3.60
2022-11-06T18:06:54.090Z,3.60
2022-11-06T18:09:22.748Z,3.50
2022-11-06T18:11:51.686Z,3.50
2022-11-06T18:14:20.186Z,3.40
2022-11-06T18:16:48.314Z,3.40
2022-11-06T18:19:19.446Z,3.40
2022-11-06T18:21:47.259Z,3.40
2022-11-06T18:24:15.213Z,3.40
2022-11-06T18:26:43.344Z,3.40
2022-11-06T18:29:13.153Z,3.40
2022-11-06T18:31:41.166Z,3.40
2022-11-06T18:34:18.436Z,3.40
2022-11-06T18:36:49.973Z,3.40
2022-11-06T18:39:18.034Z,3.40
2022-11-06T18:41:45.884Z,3.30
2022-11-06T18:44:13.795Z,3.30
2022-11-06T18:46:41.617Z,3.30
2022-11-06T18:49:11.321Z,3.30
2022-11-06T18:51:39.747Z,3.20
2022-11-06T18:54:11.599Z,3.20
2022-11-06T18:56:39.401Z,3.20
2022-11-06T18:59:08.604Z,3.20
2022-11-06T19:01:36.550Z,3.20
2022-11-06T19:04:05.617Z,3.20
2022-11-06T19:06:34.277Z,3.20
2022-11-06T19:09:02.473Z,3.20
2022-11-06T19:11:32.051Z,3.20
2022-11-06T19:14:00.331Z,3.20
2022-11-06T19:16:28.453Z,3.20
2022-11-06T19:21:30.475Z,3.30
2022-11-06T19:24:03.366Z,3.30
2022-11-06T19:26:35.432Z,3.30
2022-11-06T19:29:03.946Z,3.40
2022-11-06T19:31:33.614Z,3.40
2022-11-06T19:34:02.968Z,3.50
2022-11-06T19:36:31.760Z,3.50
2022-11-06T19:38:59.851Z,3.60
2022-11-06T19:41:29.349Z,3.60
2022-11-06T19:43:58.820Z,3.70
2022-11-06T19:46:31.138Z,3.90
2022-11-06T19:49:03.663Z,4.00
2022-11-06T19:51:31.776Z,4.00
2022-11-06T19:54:00.348Z,4.00
2022-11-06T19:56:29.005Z,4.00
2022-11-06T19:58:58.376Z,4.00
2022-11-06T20:01:26.712Z,4.10
2022-11-06T20:03:54.950Z,4.10
2022-11-06T20:06:23.095Z,4.10
2022-11-06T20:08:51.414Z,4.30
2022-11-06T20:11:19.976Z,4.40
2022-11-06T20:13:48.297Z,4.40
2022-11-06T20:16:19.705Z,4.50
2022-11-06T20:18:51.792Z,4.50
2022-11-06T20:21:20.997Z,4.70
2022-11-06T20:23:49.655Z,4.80
2022-11-06T20:26:17.697Z,4.80
2022-11-06T20:28:46.866Z,4.80
2022-11-06T20:31:18.604Z,4.90
2022-11-06T20:33:46.687Z,5.00
2022-11-06T20:36:17.311Z,5.00
2022-11-06T20:38:45.953Z,5.00
2022-11-06T20:41:14.584Z,5.00
2022-11-06T20:43:43.100Z,5.10
2022-11-06T20:46:12.585Z,5.10
2022-11-06T20:48:43.101Z,5.10
2022-11-06T20:51:14.615Z,5.10
2022-11-06T20:53:42.961Z,5.10
2022-11-06T20:56:12.939Z,5.20
2022-11-06T20:58:40.963Z,5.20
2022-11-06T21:01:10.569Z,5.30
2022-11-06T21:03:40.029Z,5.30
2022-11-06T21:06:10.436Z,5.40
2022-11-06T21:08:41.863Z,5.40
2022-11-06T21:11:12.561Z,5.40
2022-11-06T21:13:41.620Z,5.40
2022-11-06T21:16:12.922Z,5.50
2022-11-06T21:18:41.756Z,5.50
2022-11-06T21:21:12.539Z,5.50
2022-11-06T21:23:41.554Z,5.50
2022-11-06T21:26:11.713Z,5.60
2022-11-06T21:28:41.621Z,5.60
2022-11-06T21:31:10.776Z,5.60
2022-11-06T21:33:41.078Z,5.60
2022-11-06T21:36:13.262Z,5.70
2022-11-06T21:38:41.939Z,5.80
2022-11-06T21:41:12.205Z,5.80
2022-11-06T21:43:40.709Z,5.80
2022-11-06T21:46:11.344Z,5.80
2022-11-06T21:48:46.232Z,5.80
2022-11-06T21:51:18.444Z,5.80
2022-11-06T21:54:04.161Z,5.80
2022-11-06T21:56:32.268Z,5.80
2022-11-06T21:59:02.303Z,5.80
2022-11-06T22:01:32.000Z,5.80
2022-11-06T22:04:00.174Z,5.80
2022-11-06T22:06:30.788Z,5.80
2022-11-06T22:09:00.779Z,5.80
2022-11-06T22:11:30.822Z,5.80
2022-11-06T22:14:00.184Z,5.80
2022-11-06T22:16:30.000Z,5.80
2022-11-06T22:18:59.031Z,5.80
2022-11-06T22:21:30.543Z,5.90
2022-11-06T22:23:58.965Z,5.90
2022-11-06T22:26:29.154Z,5.80
2022-11-06T22:28:59.301Z,5.80
2022-11-06T22:31:28.725Z,5.80
2022-11-06T22:33:57.456Z,5.80
2022-11-06T22:36:25.805Z,5.80
2022-11-06T22:38:55.387Z,5.80
2022-11-06T22:41:25.378Z,5.90
2022-11-06T22:43:53.801Z,5.90
2022-11-06T22:46:24.403Z,5.90
2022-11-06T22:48:53.433Z,6.00
2022-11-06T22:51:23.654Z,5.90
2022-11-06T22:53:51.742Z,6.00
2022-11-06T22:56:22.311Z,6.00
2022-11-06T22:58:54.652Z,6.00
2022-11-06T23:01:24.311Z,6.10
2022-11-06T23:03:56.704Z,6.20
2022-11-06T23:06:26.076Z,6.20
2022-11-06T23:08:54.561Z,6.20
2022-11-06T23:11:25.288Z,6.30
2022-11-06T23:13:54.032Z,6.30
2022-11-06T23:16:44.922Z,6.30
2022-11-06T23:19:14.591Z,6.30
2022-11-06T23:21:44.184Z,6.30
2022-11-06T23:24:12.778Z,6.40
2022-11-06T23:26:43.830Z,6.40
2022-11-06T23:29:11.945Z,6.40
2022-11-06T23:31:41.481Z,6.40
2022-11-06T23:34:09.581Z,6.40
2022-11-06T23:36:37.691Z,6.40
2022-11-06T23:39:06.233Z,6.40
2022-11-06T23:41:46.663Z,6.40
2022-11-06T23:44:33.987Z,6.40
2022-11-06T23:47:02.602Z,6.50
2022-11-06T23:49:30.876Z,6.50
2022-11-06T23:51:59.328Z,6.50
2022-11-06T23:54:27.421Z,6.60
2022-11-06T23:56:55.529Z,6.60
2022-11-06T23:59:25.257Z,6.70
